1879 NOT_NAMED (1879070S11063)


IBTrACS version v04r00. Visit IBTrACS website for data access.
Please direct all questions to the IBTrACS Q and A forum

Storm track - Intensity - Wind Radii - Intensity Data - Source Data - All data

Summary Information

Storm ID 1879070S11063
Start Mar 11 00Z
End Mar 20 00Z
ATCF IDs
Track status Best track data.

Storm track plot

Map of storm track

Intensity plots

No Intensity information for this storm


Radial wind information

No radial wind information for this storm


Position and Intensity Table

BASIN ISO_TIME_________ NATURE LAT LON
degrees north degrees east
SI 1879-03-11 00:00:00 TS -11.00 63.30
SI 03:00:00 TS -11.15 63.10
SI 06:00:00 TS -11.30 62.90
SI 09:00:00 TS -11.45 62.71
SI 12:00:00 TS -11.60 62.50
SI 15:00:00 TS -11.74 62.25
SI 18:00:00 TS -11.90 62.00
SI 21:00:00 TS -12.08 61.81
SI 1879-03-12 00:00:00 TS -12.30 61.60
SI 03:00:00 TS -12.54 61.27
SI 06:00:00 TS -12.80 60.90
SI 09:00:00 TS -13.10 60.54
SI 12:00:00 TS -13.40 60.20
SI 15:00:00 TS -13.66 59.93
SI 18:00:00 TS -13.90 59.70
SI 21:00:00 TS -14.14 59.52
SI 1879-03-13 00:00:00 TS -14.40 59.30
SI 03:00:00 TS -14.69 58.92
SI 06:00:00 TS -15.00 58.50
SI 09:00:00 TS -15.34 58.13
SI 12:00:00 TS -15.70 57.80
SI 15:00:00 TS -16.04 57.49
SI 18:00:00 TS -16.40 57.20
SI 21:00:00 TS -16.81 56.90
SI 1879-03-14 00:00:00 TS -17.20 56.60
SI 03:00:00 TS -17.51 56.29
SI 06:00:00 TS -17.80 56.00
SI 09:00:00 TS -18.14 55.73
SI 12:00:00 TS -18.50 55.50
SI 15:00:00 TS -18.85 55.29
SI 18:00:00 TS -19.20 55.10
SI 21:00:00 TS -19.57 54.89
SI 1879-03-15 00:00:00 TS -19.90 54.70
SI 03:00:00 TS -20.12 54.58
SI 06:00:00 TS -20.30 54.50
SI 09:00:00 TS -20.50 54.40
SI 12:00:00 TS -20.70 54.30
SI 15:00:00 TS -20.89 54.19
SI 18:00:00 TS -21.10 54.10
SI 21:00:00 TS -21.36 54.04
SI 1879-03-16 00:00:00 TS -21.60 54.00
SI 03:00:00 TS -21.72 53.99
SI 06:00:00 TS -21.80 54.00
SI 09:00:00 TS -21.91 54.00
SI 12:00:00 TS -22.00 54.00
SI 15:00:00 TS -22.05 54.00
SI 18:00:00 TS -22.10 54.00
SI 21:00:00 TS -22.14 54.00
SI 1879-03-17 00:00:00 TS -22.30 54.00
SI 03:00:00 TS -22.71 53.99
SI 06:00:00 TS -23.20 54.00
SI 09:00:00 TS -23.60 54.04
SI 12:00:00 TS -24.00 54.10
SI 15:00:00 TS -24.45 54.19
SI 18:00:00 TS -24.90 54.30
SI 21:00:00 TS -25.31 54.44
SI 1879-03-18 00:00:00 TS -25.70 54.60
SI 03:00:00 TS -26.06 54.79
SI 06:00:00 TS -26.40 55.00
SI 09:00:00 TS -26.76 55.20
SI 12:00:00 TS -27.10 55.40
SI 15:00:00 TS -27.41 55.59
SI 18:00:00 TS -27.70 55.80
SI 21:00:00 TS -27.98 56.02
SI 1879-03-19 00:00:00 TS -28.30 56.30
SI 03:00:00 TS -28.73 56.67
SI 06:00:00 TS -29.20 57.10
SI 09:00:00 TS -29.61 57.54
SI 12:00:00 TS -30.00 58.00
SI 15:00:00 TS -30.36 58.44
SI 18:00:00 TS -30.70 58.90
SI 21:00:00 TS -31.05 59.39
SI 1879-03-20 00:00:00 TS -31.40 59.90

Source Information

Agency Information
USA
TOKYO
CMA
HKO
NEWDELHI
REUNION
BOM
NADI
WELLINGTON
DS824 s_hem.dat:11:NOT NAMED
TD9636
TD9635
NEUMANN
MLC

All available IBTrACS Data

SEASON BASIN SUBBASIN ISO_TIME_________ NATURE LAT LON DIST2LAND LANDFALL IFLAG USA SSHS DS824 LAT DS824 LON DS824 STAGE STORM SPEED STORM DIR
Year degrees north degrees east km km 1 degrees north degrees east kts degrees
1879 SI MM 1879-03-11 00:00:00 TS -11.00 63.30 1181 1161 _________O____ -1 -11.00 63.30 TC 5 233
1879 SI MM 03:00:00 TS -11.15 63.10 1151 1131 _________P____ -1 -11.15 63.10 TC 5 232
1879 SI MM 06:00:00 TS -11.30 62.90 1131 1110 _________O____ -1 -11.30 62.90 TC 5 232
1879 SI MM 09:00:00 TS -11.45 62.71 1110 1080 _________P____ -1 -11.45 62.71 TC 5 232
1879 SI MM 12:00:00 TS -11.60 62.50 1080 1060 _________O____ -1 -11.60 62.50 TC 5 237
1879 SI MM 15:00:00 TS -11.74 62.25 1055 1026 _________P____ -1 -11.74 62.25 TC 6 238
1879 SI MM 18:00:00 TS -11.90 62.00 1026 996 _________O____ -1 -11.90 62.00 TC 5 231
1879 SI MM 21:00:00 TS -12.08 61.81 996 967 _________P____ -1 -12.08 61.81 TC 6 224
1879 SI MM 1879-03-12 00:00:00 TS -12.30 61.60 967 933 _________O____ -1 -12.30 61.60 TC 7 230
1879 SI MM 03:00:00 TS -12.54 61.27 933 885 _________P____ -1 -12.54 61.27 TC 8 234
1879 SI MM 06:00:00 TS -12.80 60.90 885 842 _________O____ -1 -12.80 60.90 TC 9 232
1879 SI MM 09:00:00 TS -13.10 60.54 838 795 _________P____ -1 -13.10 60.54 TC 9 229
1879 SI MM 12:00:00 TS -13.40 60.20 795 764 _________O____ -1 -13.40 60.20 TC 8 227
1879 SI MM 15:00:00 TS -13.66 59.93 753 725 _________P____ -1 -13.66 59.93 TC 7 224
1879 SI MM 18:00:00 TS -13.90 59.70 725 698 _________O____ -1 -13.90 59.70 TC 6 219
1879 SI MM 21:00:00 TS -14.14 59.52 698 660 _________P____ -1 -14.14 59.52 TC 6 218
1879 SI MM 1879-03-13 00:00:00 TS -14.40 59.30 660 617 _________O____ -1 -14.40 59.30 TC 8 227
1879 SI MM 03:00:00 TS -14.69 58.92 617 576 _________P____ -1 -14.69 58.92 TC 10 232
1879 SI MM 06:00:00 TS -15.00 58.50 576 539 _________O____ -1 -15.00 58.50 TC 10 229
1879 SI MM 09:00:00 TS -15.34 58.13 538 492 _________P____ -1 -15.34 58.13 TC 10 224
1879 SI MM 12:00:00 TS -15.70 57.80 492 458 _________O____ -1 -15.70 57.80 TC 9 221
1879 SI MM 15:00:00 TS -16.04 57.49 458 415 _________P____ -1 -16.04 57.49 TC 9 219
1879 SI MM 18:00:00 TS -16.40 57.20 415 374 _________O____ -1 -16.40 57.20 TC 10 217
1879 SI MM 21:00:00 TS -16.81 56.90 374 338 _________P____ -1 -16.81 56.90 TC 10 216
1879 SI MM 1879-03-14 00:00:00 TS -17.20 56.60 338 317 _________O____ -1 -17.20 56.60 TC 9 220
1879 SI MM 03:00:00 TS -17.51 56.29 317 301 _________P____ -1 -17.51 56.29 TC 8 224
1879 SI MM 06:00:00 TS -17.80 56.00 301 286 _________O____ -1 -17.80 56.00 TC 8 220
1879 SI MM 09:00:00 TS -18.14 55.73 292 275 _________P____ -1 -18.14 55.73 TC 9 214
1879 SI MM 12:00:00 TS -18.50 55.50 275 246 _________O____ -1 -18.50 55.50 TC 8 211
1879 SI MM 15:00:00 TS -18.85 55.29 246 202 _________P____ -1 -18.85 55.29 TC 8 208
1879 SI MM 18:00:00 TS -19.20 55.10 202 162 _________O____ -1 -19.20 55.10 TC 8 208
1879 SI MM 21:00:00 TS -19.57 54.89 162 137 _________P____ -1 -19.57 54.89 TC 8 208
1879 SI MM 1879-03-15 00:00:00 TS -19.90 54.70 137 124 _________O____ -1 -19.90 54.70 TC 6 207
1879 SI MM 03:00:00 TS -20.12 54.58 124 114 _________P____ -1 -20.12 54.58 TC 4 205
1879 SI MM 06:00:00 TS -20.30 54.50 114 106 _________O____ -1 -20.30 54.50 TC 4 205
1879 SI MM 09:00:00 TS -20.50 54.40 106 100 _________P____ -1 -20.50 54.40 TC 4 205
1879 SI MM 12:00:00 TS -20.70 54.30 103 99 _________O____ -1 -20.70 54.30 TC 4 206
1879 SI MM 15:00:00 TS -20.89 54.19 106 104 _________P____ -1 -20.89 54.19 TC 4 205
1879 SI MM 18:00:00 TS -21.10 54.10 114 114 _________O____ -1 -21.10 54.10 TC 5 198
1879 SI MM 21:00:00 TS -21.36 54.04 128 128 _________P____ -1 -21.36 54.04 TC 5 191
1879 SI MM 1879-03-16 00:00:00 TS -21.60 54.00 136 136 _________O____ -1 -21.60 54.00 TC 4 187
1879 SI MM 03:00:00 TS -21.72 53.99 141 141 _________P____ -1 -21.72 53.99 TC 2 172
1879 SI MM 06:00:00 TS -21.80 54.00 145 145 _________O____ -1 -21.80 54.00 TC 2 175
1879 SI MM 09:00:00 TS -21.91 54.00 150 150 _________P____ -1 -21.91 54.00 TC 2 172
1879 SI MM 12:00:00 TS -22.00 54.00 155 155 _________O____ -1 -22.00 54.00 TC 1 177
1879 SI MM 15:00:00 TS -22.05 54.00 155 161 _________P____ -1 -22.05 54.00 TC 1 0
1879 SI MM 18:00:00 TS -22.10 54.00 161 161 _________O____ -1 -22.10 54.00 TC 1 0
1879 SI MM 21:00:00 TS -22.14 54.00 161 161 _________P____ -1 -22.14 54.00 TC 2 172
1879 SI MM 1879-03-17 00:00:00 TS -22.30 54.00 174 174 _________O____ -1 -22.30 54.00 TC 6 181
1879 SI MM 03:00:00 TS -22.71 53.99 206 206 _________P____ -1 -22.71 53.99 TC 9 0
1879 SI MM 06:00:00 TS -23.20 54.00 251 251 _________O____ -1 -23.20 54.00 TC 9 177
1879 SI MM 09:00:00 TS -23.60 54.04 289 289 _________P____ -1 -23.60 54.04 TC 8 174
1879 SI MM 12:00:00 TS -24.00 54.10 325 325 _________O____ -1 -24.00 54.10 TC 9 171
1879 SI MM 15:00:00 TS -24.45 54.19 364 364 _________P____ -1 -24.45 54.19 TC 9 169
1879 SI MM 18:00:00 TS -24.90 54.30 413 413 _________O____ -1 -24.90 54.30 TC 9 165
1879 SI MM 21:00:00 TS -25.31 54.44 452 452 _________P____ -1 -25.31 54.44 TC 8 161
1879 SI MM 1879-03-18 00:00:00 TS -25.70 54.60 491 491 _________O____ -1 -25.70 54.60 TC 8 157
1879 SI MM 03:00:00 TS -26.06 54.79 531 531 _________P____ -1 -26.06 54.79 TC 8 153
1879 SI MM 06:00:00 TS -26.40 55.00 562 562 _________O____ -1 -26.40 55.00 TC 8 152
1879 SI MM 09:00:00 TS -26.76 55.20 604 604 _________P____ -1 -26.76 55.20 TC 8 153
1879 SI MM 12:00:00 TS -27.10 55.40 637 637 _________O____ -1 -27.10 55.40 TC 7 152
1879 SI MM 15:00:00 TS -27.41 55.59 670 670 _________P____ -1 -27.41 55.59 TC 7 149
1879 SI MM 18:00:00 TS -27.70 55.80 704 704 _________O____ -1 -27.70 55.80 TC 7 146
1879 SI MM 21:00:00 TS -27.98 56.02 738 738 _________P____ -1 -27.98 56.02 TC 7 144
1879 SI MM 1879-03-19 00:00:00 TS -28.30 56.30 774 774 _________O____ -1 -28.30 56.30 TC 10 143
1879 SI MM 03:00:00 TS -28.73 56.67 823 823 _________P____ -1 -28.73 56.67 TC 11 142
1879 SI MM 06:00:00 TS -29.20 57.10 884 884 _________O____ -1 -29.20 57.10 TC 12 139
1879 SI MM 09:00:00 TS -29.61 57.54 935 935 _________P____ -1 -29.61 57.54 TC 11 136
1879 SI MM 12:00:00 TS -30.00 58.00 990 990 _________O____ -1 -30.00 58.00 TC 11 134
1879 SI MM 15:00:00 TS -30.36 58.44 1043 1043 _________P____ -1 -30.36 58.44 TC 10 132
1879 SI MM 18:00:00 TS -30.70 58.90 1089 1089 _________O____ -1 -30.70 58.90 TC 11 130
1879 SI MM 21:00:00 TS -31.05 59.39 1136 1136 _________P____ -1 -31.05 59.39 TC 11 129
1879 SI MM 1879-03-20 00:00:00 TS -31.40 59.90 1195 _________O____ -1 -31.40 59.90 TC 11 129